Time;durP1;ratioP1;P1;durP2;ratioP2;P2;SDS_P1;SDS_P2;PMS_P1;PMS_P2;Temp;Humidity;BMP_temperature;BMP_pressure;BME280_temperature;BME280_humidity;BME280_pressure;Samples;Min_cycle;Max_cycle;Signal;HPM_P1;HPM_P2
2022/01/07 15:19:38;;;;;;;8.83;5.20;;;;;;;-3.86;70.57;100188.25;1765399;79;23094;-59
2022/01/07 15:22:06;;;;;;;7.17;5.45;;;;;;;-3.87;70.99;100194.24;1676263;83;21558;-62
2022/01/07 15:24:33;;;;;;;9.60;5.95;;;;;;;-3.70;70.80;100197.22;1693412;83;27087;-64
2022/01/07 15:27:00;;;;;;;8.65;5.15;;;;;;;-3.56;70.67;100198.00;1674375;84;21525;-61
2022/01/07 15:29:28;;;;;;;;;;;;;;;-3.42;70.56;100195.73;1692423;83;21234;-67
2022/01/07 15:31:55;;;;;;;7.12;4.70;;;;;;;-3.29;70.13;100196.87;1698273;83;20492;-66
2022/01/07 15:34:21;;;;;;;7.10;4.12;;;;;;;-3.18;70.39;100207.41;1688414;83;21566;-60
2022/01/07 15:36:50;;;;;;;12.07;10.90;;;;;;;-3.07;70.68;100205.04;1712951;82;21838;-60
2022/01/07 15:39:17;;;;;;;4.70;4.30;;;;;;;-2.99;70.72;100211.23;1706811;82;21065;-60
2022/01/07 15:41:44;;;;;;;5.42;3.42;;;;;;;-2.97;69.90;100219.43;1704575;82;21601;-60
2022/01/07 15:44:11;;;;;;;7.47;4.95;;;;;;;-2.91;70.08;100226.84;1690358;82;21590;-59
2022/01/07 15:46:38;;;;;;;5.33;4.08;;;;;;;-2.89;70.24;100224.73;1678886;83;21541;-60
2022/01/07 15:49:04;;;;;;;4.58;2.90;;;;;;;-2.91;70.34;100230.27;1705927;82;22192;-61
2022/01/07 15:51:31;;;;;;;6.35;2.58;;;;;;;-2.97;70.22;100225.86;1696864;82;21655;-61
2022/01/07 15:53:58;;;;;;;6.92;3.50;;;;;;;-2.95;70.24;100228.48;1696142;82;21534;-61
2022/01/07 15:56:24;;;;;;;5.05;3.40;;;;;;;-2.96;69.84;100235.33;1685670;83;21593;-60
2022/01/07 15:58:51;;;;;;;5.83;3.17;;;;;;;-2.92;69.90;100240.09;1694617;83;21590;-61
2022/01/07 16:01:19;;;;;;;6.73;3.90;;;;;;;-2.89;69.83;100246.61;1688178;83;22438;-61
2022/01/07 16:03:46;;;;;;;7.42;4.83;;;;;;;-2.88;69.77;100255.19;1685097;83;21581;-60
2022/01/07 16:06:13;;;;;;;5.72;3.98;;;;;;;-2.86;69.76;100257.37;1686692;81;21550;-60
2022/01/07 16:08:41;;;;;;;6.78;4.78;;;;;;;-2.84;69.85;100257.02;1682458;83;21007;-61
2022/01/07 16:11:07;;;;;;;6.83;4.70;;;;;;;-2.84;69.81;100260.87;1684117;83;21650;-60
2022/01/07 16:13:37;;;;;;;6.97;4.58;;;;;;;-2.90;69.75;100254.29;1696579;83;24446;-59
2022/01/07 16:16:07;;;;;;;6.95;4.70;;;;;;;-2.90;70.07;100264.59;1690603;83;22056;-61
2022/01/07 16:18:34;;;;;;;9.18;5.75;;;;;;;-2.94;70.25;100258.11;1675220;83;21557;-64
2022/01/07 16:21:01;;;;;;;11.93;6.60;;;;;;;-2.95;70.31;100260.64;1724593;80;21491;-61
2022/01/07 16:23:27;;;;;;;43.90;25.65;;;;;;;-3.01;70.29;100262.66;1722844;80;21494;-64
2022/01/07 16:25:54;;;;;;;12.67;8.83;;;;;;;-3.07;70.45;100262.93;1720571;80;21801;-63
2022/01/07 16:28:21;;;;;;;18.75;10.78;;;;;;;-3.16;70.50;100264.90;1721357;80;22395;-62
2022/01/07 16:30:49;;;;;;;13.85;8.80;;;;;;;-3.21;70.69;100270.34;1718473;80;21062;-64
2022/01/07 16:33:16;;;;;;;17.67;10.63;;;;;;;-3.27;70.75;100265.93;1718401;80;21601;-62
2022/01/07 16:35:46;;;;;;;19.98;11.73;;;;;;;-3.32;71.02;100267.09;1717437;80;21523;-62
2022/01/07 16:38:13;;;;;;;11.18;6.65;;;;;;;-3.35;71.24;100259.75;1722196;80;22099;-63
2022/01/07 16:40:40;;;;;;;12.98;7.15;;;;;;;-3.34;71.19;100257.19;1719009;80;21502;-62
2022/01/07 16:43:08;;;;;;;14.13;8.85;;;;;;;-3.29;71.41;100255.17;1725164;80;21652;-61
2022/01/07 16:45:34;;;;;;;13.10;8.75;;;;;;;-3.24;71.29;100254.83;1727412;80;21616;-61
2022/01/07 16:48:01;;;;;;;12.15;8.38;;;;;;;-3.26;71.29;100253.93;1735939;81;21595;-62
2022/01/07 16:50:28;;;;;;;17.50;11.28;;;;;;;-3.27;71.41;100256.93;1733374;81;21744;-61
2022/01/07 16:52:56;;;;;;;21.00;12.05;;;;;;;-3.27;71.48;100259.92;1729501;81;21539;-66
2022/01/07 16:55:22;;;;;;;11.28;6.50;;;;;;;-3.33;71.22;100266.66;1717878;81;21531;-65
2022/01/07 16:57:50;;;;;;;7.85;5.37;;;;;;;-3.38;71.37;100262.23;1730253;81;21013;-64
2022/01/07 17:00:17;;;;;;;7.80;4.60;;;;;;;-3.37;71.45;100261.39;1708888;81;21555;-63
2022/01/07 17:02:44;;;;;;;8.78;4.55;;;;;;;-3.33;71.46;100269.66;1717785;82;21822;-64
2022/01/07 17:05:10;;;;;;;7.23;4.30;;;;;;;-3.33;71.31;100267.95;1715553;82;21010;-61
2022/01/07 17:07:37;;;;;;;5.97;3.13;;;;;;;-3.30;71.21;100279.13;1734309;80;21538;-61
2022/01/07 17:10:06;;;;;;;8.13;4.40;;;;;;;-3.29;71.24;100274.45;1735171;80;21522;-61
2022/01/07 17:12:33;;;;;;;7.15;4.37;;;;;;;-3.27;71.18;100273.64;1728851;80;21816;-62
2022/01/07 17:15:05;;;;;;;8.05;4.22;;;;;;;-3.29;71.33;100268.89;1731963;80;21845;-59
2022/01/07 17:17:34;;;;;;;9.38;4.42;;;;;;;-3.23;71.51;100265.16;1737093;80;21523;-60
2022/01/07 17:20:01;;;;;;;;;;;;;;;-3.19;71.48;100254.10;1720385;81;21551;-61
2022/01/07 17:22:29;;;;;;;5.95;3.70;;;;;;;-3.20;71.30;100251.09;1729262;81;20199;-62
2022/01/07 17:24:55;;;;;;;7.05;4.20;;;;;;;-3.19;71.40;100260.53;1716945;81;21538;-62
2022/01/07 17:27:27;;;;;;;9.00;4.70;;;;;;;-3.21;71.52;100268.63;1723800;80;21871;-62
2022/01/07 17:29:51;;;;;;;6.62;4.45;;;;;;;-3.23;71.23;100269.02;1723772;80;21499;-60
2022/01/07 17:32:18;;;;;;;11.15;4.12;;;;;;;-3.27;70.93;100274.07;1728942;80;21054;-61
2022/01/07 17:34:50;;;;;;;10.43;4.30;;;;;;;-3.32;71.04;100272.23;1729431;81;21537;-61
2022/01/07 17:37:13;;;;;;;9.13;4.67;;;;;;;-3.33;70.86;100267.95;1721510;80;21591;-61
2022/01/07 17:39:40;;;;;;;8.48;4.87;;;;;;;-3.32;70.86;100270.09;1722381;81;22168;-60
2022/01/07 17:42:06;;;;;;;9.35;4.67;;;;;;;-3.29;71.01;100274.03;1731116;80;21490;-60
2022/01/07 17:44:33;;;;;;;8.80;4.47;;;;;;;-3.28;70.61;100277.03;1721607;82;21546;-57
2022/01/07 17:47:00;;;;;;;9.05;5.12;;;;;;;-3.28;70.43;100273.61;1716645;81;21712;-59
2022/01/07 17:49:27;;;;;;;7.80;4.22;;;;;;;-3.30;70.32;100274.85;1714224;81;21539;-61
2022/01/07 17:51:53;;;;;;;7.97;3.93;;;;;;;-3.33;70.15;100278.23;1725365;80;21870;-63
2022/01/07 17:54:20;;;;;;;8.53;4.05;;;;;;;-3.30;70.08;100284.28;1719979;81;21504;-61
2022/01/07 17:56:46;;;;;;;5.40;3.50;;;;;;;-3.27;70.17;100279.22;1715569;81;21503;-61
2022/01/07 17:59:14;;;;;;;7.53;4.00;;;;;;;-3.22;70.14;100280.17;1720891;81;21626;-61
2022/01/07 18:01:41;;;;;;;6.03;3.70;;;;;;;-3.16;69.79;100284.19;1711120;82;21569;-60
2022/01/07 18:04:07;;;;;;;6.25;3.37;;;;;;;-3.12;69.77;100282.56;1710446;82;22127;-61
2022/01/07 18:06:34;;;;;;;8.35;3.15;;;;;;;-3.09;69.51;100281.33;1706371;82;21558;-63
2022/01/07 18:09:01;;;;;;;5.05;3.50;;;;;;;-3.04;69.47;100295.17;1713268;82;21561;-62
2022/01/07 18:11:28;;;;;;;5.50;2.70;;;;;;;-3.04;69.15;100304.17;1716817;81;21567;-63
2022/01/07 18:13:55;;;;;;;5.83;2.80;;;;;;;-3.03;68.94;100303.33;1708684;82;21590;-65
2022/01/07 18:16:21;;;;;;;5.22;2.90;;;;;;;-3.05;69.12;100299.84;1711084;82;21751;-61
2022/01/07 18:18:48;;;;;;;4.25;2.77;;;;;;;-3.03;69.19;100299.07;1721589;80;21575;-63
2022/01/07 18:21:14;;;;;;;5.22;2.52;;;;;;;-3.01;69.24;100301.69;1716571;81;21527;-63
2022/01/07 18:23:41;;;;;;;6.75;3.02;;;;;;;-3.06;68.75;100306.70;1717928;81;21128;-63
2022/01/07 18:26:09;;;;;;;4.97;3.15;;;;;;;-3.04;68.88;100311.47;1718655;81;21539;-61
2022/01/07 18:28:36;;;;;;;4.92;3.27;;;;;;;-3.05;68.59;100308.46;1719222;82;21775;-61
2022/01/07 18:31:03;;;;;;;3.40;3.02;;;;;;;-3.07;68.53;100306.67;1722437;81;21523;-60
2022/01/07 18:33:30;;;;;;;7.62;3.17;;;;;;;-3.10;68.35;100302.33;1721793;81;21487;-62
2022/01/07 18:35:57;;;;;;;6.97;3.72;;;;;;;-3.08;68.77;100313.95;1712255;82;21511;-60
2022/01/07 18:38:24;;;;;;;5.08;3.47;;;;;;;-3.09;69.14;100314.77;1716700;81;21530;-62
2022/01/07 18:40:50;;;;;;;5.30;3.15;;;;;;;-3.08;69.23;100310.09;1720874;81;21893;-61
2022/01/07 18:43:17;;;;;;;3.37;2.98;;;;;;;-3.08;69.10;100313.52;1724678;81;21574;-65
2022/01/07 18:45:43;;;;;;;9.53;2.80;;;;;;;-3.10;69.03;100320.34;1722244;80;21542;-62
2022/01/07 18:48:10;;;;;;;4.30;2.77;;;;;;;-3.11;68.96;100316.02;1730031;80;21510;-61
